Time;durP1;ratioP1;P1;durP2;ratioP2;P2;SDS_P1;SDS_P2;PMS_P1;PMS_P2;Temp;Humidity;BMP_temperature;BMP_pressure;BME280_temperature;BME280_humidity;BME280_pressure;Samples;Min_cycle;Max_cycle;Signal;HPM_P1;HPM_P2
2021/12/13 00:02:28;;;;;;;5.25;2.90;;;;;;;4.70;94.24;100707.62;126212;1099;104203;-80
2021/12/13 00:05:08;;;;;;;6.95;2.85;;;;;;;4.70;93.79;100716.30;126239;1099;104359;-81
2021/12/13 00:07:46;;;;;;;4.90;2.60;;;;;;;4.72;94.08;100724.20;126202;1099;104241;-82
2021/12/13 00:10:22;;;;;;;4.03;2.50;;;;;;;4.77;94.27;100727.97;126243;1099;104219;-81
2021/12/13 00:13:03;;;;;;;3.63;2.17;;;;;;;4.76;94.20;100710.59;126364;1099;104640;-80
2021/12/13 00:15:38;;;;;;;2.33;1.83;;;;;;;4.75;93.80;100707.08;126372;1099;104172;-81
2021/12/13 00:18:15;;;;;;;6.70;2.50;;;;;;;4.78;94.35;100709.87;126331;1099;104364;-82
2021/12/13 00:20:53;;;;;;;4.90;2.20;;;;;;;4.76;94.04;100698.48;126277;1099;104155;-80
2021/12/13 00:23:29;;;;;;;4.10;2.37;;;;;;;4.76;93.81;100708.89;126345;1098;104146;-81
2021/12/13 00:26:05;;;;;;;4.83;2.27;;;;;;;4.81;94.26;100709.17;126290;1099;104182;-79
2021/12/13 00:28:39;;;;;;;3.63;2.40;;;;;;;4.78;94.13;100711.58;126351;1098;104147;-81
2021/12/13 00:31:37;;;;;;;3.53;2.30;;;;;;;4.77;94.02;100720.17;126295;1099;119624;-81
2021/12/13 00:34:19;;;;;;;4.30;2.27;;;;;;;4.82;94.59;100714.47;126324;1098;104136;-80
2021/12/13 00:36:55;;;;;;;5.53;2.47;;;;;;;4.81;93.91;100707.46;126340;1099;102144;-81
2021/12/13 00:39:31;;;;;;;5.13;2.53;;;;;;;4.82;94.69;100719.67;126288;1099;104184;-81
2021/12/13 00:42:05;;;;;;;4.57;2.30;;;;;;;4.86;94.10;100723.34;126340;1099;104175;-82
2021/12/13 00:44:40;;;;;;;;;;;;;;;4.87;94.30;100712.16;126339;1098;104245;-82
2021/12/13 00:47:18;;;;;;;4.50;2.40;;;;;;;4.86;93.91;100710.34;126335;1099;104143;-83
2021/12/13 00:49:56;;;;;;;4.60;2.33;;;;;;;4.84;93.77;100712.85;126302;1098;104174;-81
2021/12/13 00:52:29;;;;;;;2.67;2.10;;;;;;;4.82;93.96;100706.67;126309;1099;104120;-80
2021/12/13 00:55:10;;;;;;;3.77;2.40;;;;;;;4.80;93.74;100716.09;126349;1099;104165;-81
2021/12/13 00:57:48;;;;;;;2.97;2.20;;;;;;;4.78;94.05;100711.58;126272;1099;104232;-80
2021/12/13 01:00:30;;;;;;;4.73;2.33;;;;;;;4.75;93.87;100716.59;126252;1099;104149;-81
2021/12/13 01:03:07;;;;;;;5.43;2.47;;;;;;;4.74;93.96;100707.02;126298;1099;104172;-81
2021/12/13 01:05:59;;;;;;;4.40;2.40;;;;;;;4.72;94.10;100703.41;126313;1099;104150;-81
2021/12/13 01:09:12;;;;;;;3.77;2.27;;;;;;;4.69;94.22;100709.33;126335;1099;104184;-81
2021/12/13 01:11:53;;;;;;;5.33;2.80;;;;;;;4.66;93.90;100706.54;126219;1099;104165;-81
2021/12/13 01:14:54;;;;;;;3.43;2.13;;;;;;;4.64;94.01;100709.04;126334;1098;104143;-80
2021/12/13 01:17:47;;;;;;;3.67;2.30;;;;;;;4.60;94.33;100717.44;126339;1099;104155;-81
2021/12/13 01:20:28;;;;;;;4.75;2.55;;;;;;;4.56;93.91;100712.83;126277;1097;103973;-81
2021/12/13 01:23:05;;;;;;;3.33;2.30;;;;;;;4.55;93.87;100718.86;126360;1099;104128;-82
2021/12/13 01:25:46;;;;;;;3.17;2.07;;;;;;;4.54;94.41;100717.05;126358;1099;104281;-81
2021/12/13 01:28:25;;;;;;;4.60;2.43;;;;;;;4.52;94.45;100718.66;126343;1097;104341;-81
2021/12/13 01:31:01;;;;;;;2.50;1.73;;;;;;;4.49;94.24;100715.87;126330;1099;104146;-80
2021/12/13 01:33:34;;;;;;;3.23;1.93;;;;;;;4.48;93.98;100716.66;126325;1099;104193;-82
2021/12/13 01:36:09;;;;;;;3.62;1.77;;;;;;;4.48;94.09;100712.34;126348;1098;104219;-81
2021/12/13 01:38:50;;;;;;;2.40;1.63;;;;;;;4.48;93.95;100716.66;126358;1098;104271;-81
2021/12/13 01:41:26;;;;;;;3.33;1.80;;;;;;;4.46;93.90;100718.27;126281;1099;104150;-82
2021/12/13 01:44:02;;;;;;;4.33;2.17;;;;;;;4.48;94.07;100716.66;126344;1099;104254;-80
2021/12/13 01:46:37;;;;;;;3.20;2.00;;;;;;;4.45;93.63;100722.55;126335;1099;104912;-81
2021/12/13 01:49:10;;;;;;;4.13;2.17;;;;;;;4.44;94.50;100719.85;126333;1099;104185;-81
2021/12/13 01:51:44;;;;;;;4.60;2.20;;;;;;;4.44;94.25;100714.66;126288;1099;104152;-81
2021/12/13 01:54:20;;;;;;;3.30;2.03;;;;;;;4.45;93.99;100706.06;126297;1098;104149;-80
2021/12/13 01:56:58;;;;;;;2.03;1.50;;;;;;;4.45;94.40;100703.47;126300;1099;104249;-80
2021/12/13 01:59:49;;;;;;;3.20;1.83;;;;;;;4.44;94.20;100699.98;126326;1099;104277;-82
2021/12/13 02:02:32;;;;;;;3.50;1.87;;;;;;;4.46;94.45;100703.56;126302;1097;104152;-80
2021/12/13 02:05:10;;;;;;;3.77;2.00;;;;;;;4.47;94.49;100714.84;126360;1099;104326;-82
2021/12/13 02:07:48;;;;;;;4.57;2.30;;;;;;;4.45;93.82;100706.95;126271;1099;104280;-80
2021/12/13 02:10:27;;;;;;;3.77;1.83;;;;;;;4.45;94.20;100706.95;126333;1099;104255;-82
2021/12/13 02:13:03;;;;;;;4.37;2.20;;;;;;;4.44;94.38;100712.05;126299;1099;104166;-81
2021/12/13 02:18:33;;;;;;;4.57;2.30;;;;;;;4.44;94.59;100710.38;126324;1099;104185;-80
2021/12/13 02:21:12;;;;;;;4.27;2.43;;;;;;;4.44;94.54;100712.98;126305;1097;104425;-81
2021/12/13 02:23:47;;;;;;;2.63;1.80;;;;;;;4.45;94.44;100703.47;126208;1099;104309;-81
2021/12/13 02:26:19;;;;;;;3.27;1.90;;;;;;;4.44;94.07;100694.78;126319;1099;104255;-81
2021/12/13 02:29:01;;;;;;;3.10;1.63;;;;;;;4.46;94.58;100700.97;126338;1099;104207;-82
2021/12/13 02:31:36;;;;;;;3.07;2.03;;;;;;;4.50;94.34;100700.38;126303;1099;103078;-82
2021/12/13 02:34:10;;;;;;;2.60;1.73;;;;;;;4.53;94.54;100710.04;126304;1099;105263;-81
2021/12/13 02:36:42;;;;;;;;;;;;;;;4.56;93.93;100714.55;126242;1099;104355;-81
2021/12/13 02:39:18;;;;;;;2.43;1.90;;;;;;;4.60;94.64;100709.64;126187;1099;104152;-82
2021/12/13 02:41:51;;;;;;;2.10;1.80;;;;;;;4.59;93.92;100720.83;125353;1099;104144;-82
2021/12/13 02:44:25;;;;;;;1.90;1.70;;;;;;;4.62;94.93;100710.63;125421;1099;104318;-82
2021/12/13 02:47:01;;;;;;;2.73;1.93;;;;;;;4.61;94.20;100711.45;126181;1099;104140;-81
2021/12/13 02:49:34;;;;;;;3.47;2.10;;;;;;;4.60;94.39;100716.55;126161;1099;104146;-82
2021/12/13 02:52:11;;;;;;;3.47;2.43;;;;;;;4.64;93.93;100713.31;126166;1098;104383;-83
2021/12/13 02:54:46;;;;;;;3.17;2.00;;;;;;;4.63;94.51;100703.75;126225;1099;104181;-81
2021/12/13 02:57:21;;;;;;;2.57;2.03;;;;;;;4.61;94.06;100692.33;126220;1099;104255;-82
2021/12/13 02:59:57;;;;;;;3.83;2.47;;;;;;;4.61;94.52;100693.25;126198;1099;104381;-82
2021/12/13 03:02:33;;;;;;;3.40;2.30;;;;;;;4.61;93.93;100700.12;126076;1099;104147;-81
2021/12/13 03:05:12;;;;;;;3.93;2.60;;;;;;;4.59;93.66;100697.44;125453;1099;104204;-83
2021/12/13 03:07:48;;;;;;;5.83;2.70;;;;;;;4.62;94.07;100713.22;126142;1099;104296;-83
2021/12/13 03:10:24;;;;;;;4.13;3.03;;;;;;;4.62;94.37;100710.63;126327;1099;104147;-82
2021/12/13 03:12:56;;;;;;;6.40;2.90;;;;;;;4.63;94.49;100707.23;126220;1099;104146;-81
2021/12/13 03:15:31;;;;;;;5.47;3.00;;;;;;;4.58;93.79;100706.05;126362;1098;104338;-82
2021/12/13 03:18:12;;;;;;;7.63;3.20;;;;;;;4.57;93.86;100706.84;126324;1099;104139;-83
2021/12/13 03:21:05;;;;;;;8.33;4.07;;;;;;;4.54;94.16;100710.96;126391;1099;104140;-81
2021/12/13 03:23:58;;;;;;;7.50;3.63;;;;;;;4.57;93.87;100724.16;126325;1099;105530;-83
2021/12/13 03:26:53;;;;;;;16.27;5.30;;;;;;;4.63;94.31;100719.34;126263;1099;104143;-83
2021/12/13 03:29:41;;;;;;;30.80;11.10;;;;;;;4.64;93.96;100722.03;126153;1099;104263;-82
2021/12/13 03:32:16;;;;;;;22.07;9.73;;;;;;;4.61;94.29;100734.84;126278;1099;104149;-82
2021/12/13 03:35:03;;;;;;;30.70;12.10;;;;;;;4.62;94.06;100734.02;126271;1099;104288;-82
2021/12/13 03:37:36;;;;;;;24.73;9.87;;;;;;;4.62;93.94;100734.02;126358;1099;104367;-83
2021/12/13 03:40:15;;;;;;;14.27;6.17;;;;;;;4.62;94.29;100722.73;126282;1099;104181;-82
2021/12/13 03:42:49;;;;;;;8.57;4.67;;;;;;;4.61;93.75;100724.44;126306;1096;104252;-82
2021/12/13 03:45:26;;;;;;;5.70;3.50;;;;;;;4.60;93.98;100712.23;126264;1099;111973;-82
2021/12/13 03:48:05;;;;;;;6.23;3.50;;;;;;;4.58;94.21;100729.45;126310;1099;104146;-82
2021/12/13 03:50:41;;;;;;;5.33;3.50;;;;;;;4.56;94.26;100728.42;126345;1098;104179;-82
2021/12/13 03:53:15;;;;;;;5.10;3.30;;;;;;;4.50;94.01;100726.36;126262;1098;104188;-81
2021/12/13 03:55:49;;;;;;;24.60;9.07;;;;;;;4.49;94.63;100718.47;126116;1099;104223;-81
2021/12/13 03:58:23;;;;;;;22.23;8.57;;;;;;;4.47;94.01;100722.64;126198;1099;104267;-82
2021/12/13 04:01:02;;;;;;;21.17;8.03;;;;;;;4.44;94.77;100722.45;126268;1099;104188;-82
2021/12/13 04:03:41;;;;;;;24.07;9.00;;;;;;;4.44;94.28;100727.64;126248;1099;104150;-83
2021/12/13 04:06:16;;;;;;;16.33;6.37;;;;;;;4.44;94.51;100727.64;126248;1099;104265;-82
2021/12/13 04:08:50;;;;;;;27.03;10.00;;;;;;;4.41;94.49;100728.37;126309;1099;104303;-81
2021/12/13 04:11:28;;;;;;;19.40;7.53;;;;;;;4.39;94.16;100731.66;126347;1096;104219;-82
2021/12/13 04:14:08;;;;;;;17.67;7.80;;;;;;;4.42;94.39;100726.66;126182;1099;104255;-83
2021/12/13 04:17:02;;;;;;;15.25;5.05;;;;;;;4.42;94.38;100729.26;126362;1099;104312;-81
2021/12/13 04:19:46;;;;;;;10.53;5.40;;;;;;;4.38;94.83;100733.37;126296;1099;104213;-80
2021/12/13 04:22:25;;;;;;;9.23;5.10;;;;;;;4.34;94.25;100728.77;126341;1099;104143;-82
2021/12/13 04:25:09;;;;;;;7.67;4.13;;;;;;;4.35;94.22;100735.77;126271;1099;104573;-82
2021/12/13 04:27:44;;;;;;;7.07;4.40;;;;;;;4.36;95.08;100731.46;126282;1099;104570;-83
2021/12/13 04:30:22;;;;;;;7.87;4.70;;;;;;;4.35;94.61;100737.45;126352;1099;104234;-83
2021/12/13 04:32:58;;;;;;;8.60;5.20;;;;;;;4.37;94.99;100741.06;126189;1099;104240;-83
2021/12/13 04:35:29;;;;;;;9.60;5.00;;;;;;;4.43;94.80;100744.95;126283;1099;104248;-83
2021/12/13 04:38:04;;;;;;;7.77;3.33;;;;;;;4.42;94.98;100737.94;126339;1099;104191;-82
2021/12/13 04:40:37;;;;;;;3.80;2.90;;;;;;;4.42;94.45;100748.33;126295;1099;104213;-82
2021/12/13 04:43:13;;;;;;;4.25;2.75;;;;;;;4.44;94.90;100753.63;126322;1099;104171;-83
2021/12/13 04:45:47;;;;;;;3.40;2.60;;;;;;;4.44;94.85;100756.23;126230;1097;104262;-82
2021/12/13 04:48:22;;;;;;;4.95;2.90;;;;;;;4.41;94.58;100759.55;126268;1099;104131;-82
2021/12/13 04:50:53;;;;;;;;;;;;;;;4.42;94.52;100768.23;126145;1099;104169;-81
2021/12/13 04:53:33;;;;;;;6.55;3.50;;;;;;;4.45;95.19;100768.43;125990;1099;104216;-81
2021/12/13 04:56:10;;;;;;;8.00;3.87;;;;;;;4.46;95.36;100770.24;126055;1099;104277;-82
2021/12/13 04:58:54;;;;;;;6.17;3.70;;;;;;;4.44;94.47;100764.02;126261;1099;104152;-81
2021/12/13 05:01:26;;;;;;;5.13;3.10;;;;;;;4.45;94.96;100771.92;126270;1099;104216;-81
2021/12/13 05:04:01;;;;;;;5.23;3.10;;;;;;;4.46;95.15;100771.12;126289;1099;104187;-81
2021/12/13 05:06:35;;;;;;;4.70;2.97;;;;;;;4.48;94.68;100772.12;126104;1099;104232;-82
2021/12/13 05:09:11;;;;;;;5.47;3.00;;;;;;;4.45;94.56;100771.92;126075;1099;104153;-80
2021/12/13 05:11:47;;;;;;;6.33;3.07;;;;;;;4.46;94.77;100773.73;126259;1099;104644;-81
2021/12/13 05:14:29;;;;;;;9.23;4.47;;;;;;;4.47;94.23;100777.22;126142;1099;104232;-80
2021/12/13 05:17:07;;;;;;;5.90;3.17;;;;;;;4.55;95.21;100777.71;126016;1099;104312;-80
2021/12/13 05:19:45;;;;;;;5.87;3.50;;;;;;;4.59;94.44;100785.80;126221;1099;104274;-82
2021/12/13 05:22:19;;;;;;;4.80;2.93;;;;;;;4.60;94.57;100777.22;126287;1097;104579;-80
2021/12/13 05:24:50;;;;;;;;;;;;;;;4.59;95.21;100783.20;126157;1099;104175;-80
2021/12/13 05:27:34;;;;;;;7.47;3.43;;;;;;;4.60;95.02;100782.41;126050;1099;104168;-80
2021/12/13 05:30:16;;;;;;;5.67;2.90;;;;;;;4.60;94.91;100782.41;126118;1098;104166;-80
2021/12/13 05:32:53;;;;;;;5.90;3.07;;;;;;;4.61;94.81;100784.22;126232;1099;104142;-80
2021/12/13 05:35:30;;;;;;;6.93;3.57;;;;;;;4.62;94.64;100787.71;126043;1098;104274;-80
2021/12/13 05:38:04;;;;;;;9.23;4.10;;;;;;;4.62;94.79;100783.40;126148;1099;104245;-82
2021/12/13 05:40:41;;;;;;;7.85;4.40;;;;;;;4.62;94.94;100779.91;126099;1099;104513;-78
2021/12/13 05:43:21;;;;;;;5.70;3.40;;;;;;;4.61;95.14;100771.23;126145;1098;104146;-78
2021/12/13 05:46:01;;;;;;;10.70;5.87;;;;;;;4.55;95.06;100770.83;126089;1099;104146;-79
2021/12/13 05:48:48;;;;;;;8.47;4.07;;;;;;;4.54;95.22;100783.73;126202;1099;104144;-81
2021/12/13 05:51:34;;;;;;;7.87;3.57;;;;;;;4.58;95.12;100807.42;126132;1099;104240;-81
2021/12/13 05:54:10;;;;;;;4.40;3.00;;;;;;;4.60;95.35;100798.02;125885;1099;104153;-81
2021/12/13 05:56:45;;;;;;;10.33;4.00;;;;;;;4.56;94.82;100800.31;126052;1099;104274;-82
2021/12/13 05:59:27;;;;;;;8.00;4.00;;;;;;;4.56;94.94;100818.50;126106;1096;104216;-81
2021/12/13 06:02:14;;;;;;;6.77;4.00;;;;;;;4.57;95.51;100813.41;126062;1099;104303;-80
2021/12/13 06:05:00;;;;;;;7.30;3.97;;;;;;;4.54;94.62;100808.01;126180;1099;104235;-80
2021/12/13 06:07:39;;;;;;;12.00;5.13;;;;;;;4.52;95.38;100804.42;125969;1099;104134;-80
2021/12/13 06:10:15;;;;;;;11.73;5.30;;;;;;;4.55;95.22;100819.30;126005;1099;104105;-80
2021/12/13 06:12:54;;;;;;;10.70;5.03;;;;;;;4.55;95.33;100820.22;125929;1099;104203;-81
2021/12/13 06:15:34;;;;;;;11.20;5.27;;;;;;;4.50;95.38;100825.11;125720;1099;104165;-81
2021/12/13 06:18:18;;;;;;;11.77;5.43;;;;;;;4.50;95.40;100838.11;125922;1097;104201;-80
2021/12/13 06:21:01;;;;;;;9.53;4.80;;;;;;;4.52;95.43;100834.69;125776;1099;104172;-80
2021/12/13 06:23:44;;;;;;;9.00;4.97;;;;;;;4.49;95.23;100825.02;126011;1099;104223;-82
2021/12/13 06:26:17;;;;;;;10.67;5.30;;;;;;;4.47;95.89;100834.39;125942;1099;104184;-81
2021/12/13 06:29:03;;;;;;;11.40;5.13;;;;;;;4.49;95.60;100848.40;125978;1099;104255;-82
2021/12/13 06:31:46;;;;;;;9.60;4.67;;;;;;;4.49;95.24;100838.89;125896;1099;104226;-82
2021/12/13 06:34:27;;;;;;;8.70;4.70;;;;;;;4.47;95.21;100857.77;125941;1099;104333;-84
2021/12/13 06:37:07;;;;;;;9.03;4.70;;;;;;;4.47;95.21;100869.09;125078;1100;104283;-81
2021/12/13 06:39:41;;;;;;;9.93;5.00;;;;;;;4.47;95.49;100871.69;125734;1099;104258;-82
2021/12/13 06:42:19;;;;;;;11.40;5.12;;;;;;;4.36;95.97;100861.38;125097;1099;104313;-84
2021/12/13 06:44:55;;;;;;;14.80;5.93;;;;;;;4.42;95.13;100874.77;124969;1099;104303;-82
2021/12/13 06:47:27;;;;;;;11.90;5.13;;;;;;;4.44;95.91;100881.88;124984;1099;104194;-80
2021/12/13 06:50:02;;;;;;;11.83;5.00;;;;;;;4.45;95.38;100869.78;124943;1102;104303;-80
2021/12/13 06:52:38;;;;;;;13.20;5.53;;;;;;;4.45;95.42;100873.27;124963;1102;104318;-80
2021/12/13 06:55:14;;;;;;;11.80;5.33;;;;;;;4.46;95.77;100874.19;125119;1102;104361;-81
2021/12/13 06:57:54;;;;;;;12.93;6.00;;;;;;;4.46;95.76;100869.88;125005;1102;104171;-79
2021/12/13 07:00:37;;;;;;;18.17;7.17;;;;;;;4.43;95.96;100874.88;125286;1099;104149;-81
2021/12/13 07:03:12;;;;;;;15.55;7.40;;;;;;;4.40;95.78;100874.67;125786;1099;104204;-80
2021/12/13 07:05:47;;;;;;;19.20;8.33;;;;;;;4.39;95.86;100877.16;125735;1099;104169;-82
2021/12/13 07:08:42;;;;;;;19.23;8.43;;;;;;;4.38;95.86;100881.47;125648;1099;103512;-83
2021/12/13 07:11:19;;;;;;;17.62;7.62;;;;;;;4.40;95.99;100897.16;125127;1099;107043;-82
2021/12/13 07:14:04;;;;;;;16.33;7.13;;;;;;;4.43;95.49;100874.88;125796;1099;102784;-81
2021/12/13 07:16:52;;;;;;;18.73;8.27;;;;;;;4.46;95.60;100885.47;125770;1099;104290;-83
2021/12/13 07:19:33;;;;;;;18.97;8.17;;;;;;;4.50;95.76;100883.96;125808;1099;104191;-81
2021/12/13 07:22:26;;;;;;;17.97;8.27;;;;;;;4.55;95.71;100869.59;125916;1099;104194;-84
2021/12/13 07:25:24;;;;;;;20.10;8.83;;;;;;;4.60;95.62;100890.69;125795;1099;104208;-83
2021/12/13 07:28:26;;;;;;;;;;;;;;;;;;;;;
2021/12/13 07:31:18;;;;;;;20.80;9.70;;;;;;;4.67;95.50;100893.80;124960;1102;104182;-82
2021/12/13 07:33:53;;;;;;;18.43;8.13;;;;;;;4.71;95.70;100876.69;125030;1102;104150;-82
2021/12/13 07:36:48;;;;;;;16.27;7.47;;;;;;;4.74;96.22;100870.80;125082;1102;104380;-83
2021/12/13 07:39:30;;;;;;;14.90;5.87;;;;;;;4.78;95.66;100883.17;125093;1102;104371;-84
2021/12/13 07:42:21;;;;;;;10.40;4.57;;;;;;;4.83;95.85;100871.36;125010;1102;102179;-80
2021/12/13 07:44:54;;;;;;;7.90;4.20;;;;;;;4.83;95.85;100880.09;124946;1102;104270;-80
2021/12/13 07:47:42;;;;;;;11.13;4.63;;;;;;;4.84;95.29;100878.38;125132;1099;104242;-81
2021/12/13 07:50:27;;;;;;;11.37;4.67;;;;;;;4.85;96.13;100883.67;125143;1102;104219;-81
2021/12/13 07:53:11;;;;;;;11.20;4.87;;;;;;;4.86;95.36;100879.36;125034;1099;104606;-81
2021/12/13 07:55:59;;;;;;;10.80;4.75;;;;;;;4.88;95.53;100874.27;125126;1102;104370;-81
2021/12/13 07:58:42;;;;;;;9.70;4.67;;;;;;;4.90;96.14;100872.69;125192;1102;104252;-79
2021/12/13 08:01:30;;;;;;;10.47;4.40;;;;;;;4.89;95.18;100868.27;125918;1099;104175;-79
2021/12/13 08:04:23;;;;;;;;;;;;;;;;;;;;;
2021/12/13 08:07:21;;;;;;;;;;;;;;;;;;;;;
2021/12/13 08:10:22;;;;;;;16.27;5.93;;;;;;;4.82;95.70;100854.88;125843;1099;104201;-80
2021/12/13 08:13:00;;;;;;;14.93;6.10;;;;;;;4.85;95.56;100860.27;125915;1099;104185;-79
2021/12/13 08:15:39;;;;;;;13.60;5.90;;;;;;;4.88;95.49;100859.58;125944;1100;104242;-79
2021/12/13 08:18:25;;;;;;;12.15;5.70;;;;;;;4.88;94.67;100859.58;125989;1099;104219;-80
2021/12/13 08:21:22;;;;;;;14.90;6.20;;;;;;;4.82;95.30;100866.98;125223;1099;104034;-81
2021/12/13 08:24:20;;;;;;;16.17;6.77;;;;;;;4.80;94.98;100853.89;125144;1099;104316;-79
2021/12/13 08:27:10;;;;;;;13.88;5.47;;;;;;;4.82;95.28;100857.48;125064;1100;104192;-80
2021/12/13 08:29:44;;;;;;;10.37;4.53;;;;;;;4.81;94.77;100872.98;125187;1099;102279;-78
2021/12/13 08:32:29;;;;;;;9.70;4.35;;;;;;;4.78;94.92;100873.66;125576;1099;104357;-79
2021/12/13 08:35:09;;;;;;;9.50;4.40;;;;;;;4.78;94.90;100878.87;125081;1102;104194;-78
2021/12/13 08:37:54;;;;;;;9.37;4.20;;;;;;;4.78;95.27;100881.47;125072;1102;104224;-79
2021/12/13 08:40:31;;;;;;;9.00;3.95;;;;;;;4.78;94.77;100877.98;125688;1099;102913;-79
2021/12/13 08:43:09;;;;;;;11.17;5.00;;;;;;;4.80;94.88;100876.37;125785;1099;104222;-79
2021/12/13 08:46:11;;;;;;;13.77;6.13;;;;;;;4.83;94.64;100876.56;125817;1099;104184;-79
2021/12/13 08:48:51;;;;;;;11.50;5.30;;;;;;;4.89;94.53;100874.36;125768;1099;102515;-78
2021/12/13 08:51:29;;;;;;;18.70;7.17;;;;;;;4.90;94.89;100867.48;125815;1099;104230;-81
2021/12/13 08:54:12;;;;;;;15.70;6.63;;;;;;;4.93;94.78;100859.88;125102;1099;104373;-77
2021/12/13 08:56:51;;;;;;;15.57;5.63;;;;;;;4.94;94.40;100865.18;125816;1099;102920;-76
2021/12/13 08:59:27;;;;;;;8.93;4.37;;;;;;;4.93;94.72;100859.88;125789;1099;102436;-77
2021/12/13 09:02:11;;;;;;;11.33;4.47;;;;;;;4.92;94.32;100861.55;125849;1099;104181;-78
2021/12/13 09:05:02;;;;;;;12.57;4.47;;;;;;;4.87;94.29;100852.58;125764;1099;104272;-79
2021/12/13 09:07:53;;;;;;;10.87;4.37;;;;;;;4.87;94.13;100852.58;125873;1098;104736;-78
2021/12/13 09:10:44;;;;;;;9.43;4.00;;;;;;;4.91;94.63;100864.06;125783;1099;104149;-78
2021/12/13 09:13:38;;;;;;;10.37;4.53;;;;;;;4.94;94.62;100872.98;125662;1099;103337;-78
2021/12/13 09:16:20;;;;;;;6.17;3.67;;;;;;;4.95;93.80;100874.76;125749;1099;104309;-78
2021/12/13 09:19:23;;;;;;;16.03;8.13;;;;;;;4.98;94.23;100876.66;125857;1099;102291;-76
2021/12/13 09:22:07;;;;;;;9.80;5.00;;;;;;;4.96;93.39;100888.69;125163;1099;104121;-76
2021/12/13 09:24:43;;;;;;;;;;;;;;;4.93;94.30;100884.17;125163;1099;102360;-77
2021/12/13 09:27:47;;;;;;;7.33;3.93;;;;;;;4.94;94.04;100880.78;125087;1103;104418;-78
2021/12/13 09:30:50;;;;;;;6.03;3.40;;;;;;;4.93;93.70;100878.09;125683;1099;104166;-77
2021/12/13 09:33:45;;;;;;;10.23;4.83;;;;;;;4.93;94.45;100878.97;125189;1099;104758;-77
2021/12/13 09:36:19;;;;;;;9.77;5.20;;;;;;;4.92;93.86;100877.16;125494;1099;104262;-76
2021/12/13 09:38:54;;;;;;;;;;;;;;;4.92;93.56;100884.96;125098;1099;104271;-77
2021/12/13 09:41:52;;;;;;;10.90;4.50;;;;;;;4.91;94.19;100880.59;125767;1099;104184;-78
2021/12/13 09:44:37;;;;;;;10.43;5.20;;;;;;;4.95;94.06;100892.08;125656;1099;107386;-77
2021/12/13 09:47:14;;;;;;;8.57;4.70;;;;;;;4.97;93.97;100891.38;126081;1099;104216;-81
2021/12/13 09:49:51;;;;;;;9.97;4.70;;;;;;;4.99;93.90;100889.77;125587;1099;104237;-78
2021/12/13 09:52:48;;;;;;;;;;;;;;;;;;;;;
2021/12/13 09:55:30;;;;;;;13.57;5.27;;;;;;;5.04;93.69;100884.86;125892;1099;104153;-77
2021/12/13 09:58:06;;;;;;;11.53;4.77;;;;;;;5.10;93.26;100881.77;125826;1099;104287;-78
2021/12/13 10:00:47;;;;;;;11.40;4.50;;;;;;;5.06;92.71;100866.75;126134;1099;104211;-79
2021/12/13 10:03:29;;;;;;;6.20;3.53;;;;;;;5.15;92.75;100878.63;125818;1099;104175;-79
2021/12/13 10:06:08;;;;;;;8.93;4.20;;;;;;;5.15;93.27;100869.94;125870;1099;104191;-80
2021/12/13 10:09:11;;;;;;;12.70;4.80;;;;;;;5.20;93.75;100868.52;125563;1099;104384;-82
2021/12/13 10:12:05;;;;;;;9.60;4.70;;;;;;;5.25;92.90;100874.94;125750;1099;102913;-79
2021/12/13 10:14:53;;;;;;;14.10;6.53;;;;;;;5.32;93.67;100876.21;125521;1099;104248;-80
2021/12/13 10:17:54;;;;;;;15.63;6.97;;;;;;;5.33;92.68;100876.30;124979;1102;104310;-79
2021/12/13 10:21:12;;;;;;;11.73;5.47;;;;;;;5.31;92.21;100882.20;124953;1102;104230;-79
2021/12/13 10:23:57;;;;;;;10.17;4.50;;;;;;;5.27;93.00;100875.03;124827;1102;104178;-79
2021/12/13 10:26:41;;;;;;;8.67;4.80;;;;;;;5.28;92.89;100879.41;124963;1102;104204;-77
2021/12/13 10:29:15;;;;;;;7.27;4.37;;;;;;;5.31;92.74;100890.91;124869;1102;108128;-81
2021/12/13 10:31:59;;;;;;;10.00;3.77;;;;;;;5.22;92.33;100866.94;124914;1102;104206;-79
2021/12/13 10:34:38;;;;;;;4.97;3.37;;;;;;;5.29;92.04;100883.83;124839;1102;104175;-80
2021/12/13 10:37:16;;;;;;;7.25;4.10;;;;;;;5.34;91.42;100885.89;125571;1098;104220;-79
2021/12/13 10:39:52;;;;;;;6.83;3.70;;;;;;;5.36;91.20;100875.58;125632;1100;104155;-81
2021/12/13 10:42:32;;;;;;;5.13;3.30;;;;;;;5.35;90.68;100879.00;125538;1099;104316;-79
2021/12/13 10:45:09;;;;;;;5.13;3.20;;;;;;;5.34;91.42;100871.98;125720;1099;104181;-81
2021/12/13 10:47:44;;;;;;;5.00;3.27;;;;;;;5.30;90.78;100870.91;125732;1099;104133;-82
2021/12/13 10:50:40;;;;;;;9.77;4.20;;;;;;;5.24;89.98;100867.92;125622;1098;104191;-81
2021/12/13 10:53:20;;;;;;;4.83;3.23;;;;;;;5.20;90.98;100859.03;126346;1098;102090;-81
2021/12/13 10:56:08;;;;;;;4.97;3.60;;;;;;;5.19;90.30;100856.34;125514;1099;104182;-79
2021/12/13 10:58:44;;;;;;;7.90;3.77;;;;;;;5.15;90.67;100849.12;125671;1099;104242;-79
2021/12/13 11:01:21;;;;;;;9.43;5.00;;;;;;;5.14;91.33;100842.11;125714;1098;104194;-78
2021/12/13 11:03:56;;;;;;;11.40;5.53;;;;;;;5.12;91.29;100839.42;125611;1099;102824;-79
2021/12/13 11:06:33;;;;;;;9.80;4.93;;;;;;;5.15;91.63;100843.92;125711;1099;104281;-79
2021/12/13 11:09:12;;;;;;;6.63;3.80;;;;;;;5.13;91.37;100829.94;125730;1099;104357;-79
2021/12/13 11:12:02;;;;;;;5.23;3.20;;;;;;;5.12;91.13;100817.72;125937;1099;104194;-79
2021/12/13 11:14:48;;;;;;;7.97;3.60;;;;;;;5.10;91.51;100815.02;125936;1098;104175;-80
2021/12/13 11:17:29;;;;;;;7.90;3.63;;;;;;;5.10;91.40;100829.74;126001;1099;104187;-80
2021/12/13 11:20:09;;;;;;;6.97;3.77;;;;;;;5.10;90.81;100812.42;125939;1099;119150;-80
2021/12/13 11:22:47;;;;;;;15.77;7.10;;;;;;;5.12;90.95;100830.73;125907;1099;104207;-81
2021/12/13 11:25:25;;;;;;;14.13;6.90;;;;;;;5.12;91.08;100816.00;125933;1099;104182;-82
2021/12/13 11:27:57;;;;;;;7.97;4.63;;;;;;;5.11;90.15;100818.52;125752;1099;102340;-83
2021/12/13 11:30:36;;;;;;;8.40;4.83;;;;;;;5.11;91.31;100832.44;125710;1099;102229;-81
2021/12/13 11:33:41;;;;;;;9.13;5.03;;;;;;;5.13;90.54;100838.62;125583;1098;104182;-80
2021/12/13 11:36:48;;;;;;;10.57;5.13;;;;;;;5.16;91.22;100840.53;125684;1099;104354;-79
2021/12/13 11:39:42;;;;;;;9.33;4.30;;;;;;;5.17;90.80;100843.23;125718;1099;104169;-79
2021/12/13 11:42:45;;;;;;;9.73;4.63;;;;;;;5.15;90.72;100847.42;125788;1099;103650;-80
2021/12/13 11:45:47;;;;;;;10.03;4.43;;;;;;;5.16;91.02;100856.14;125676;1099;104265;-79
2021/12/13 11:48:53;;;;;;;10.73;4.83;;;;;;;5.13;91.31;100864.64;125604;1099;104217;-80
2021/12/13 11:51:54;;;;;;;10.45;4.17;;;;;;;5.12;90.98;100860.23;125659;1099;106513;-80
2021/12/13 11:54:55;;;;;;;9.80;4.53;;;;;;;5.13;91.31;100863.75;125603;1098;104299;-82
2021/12/13 11:58:05;;;;;;;8.90;4.50;;;;;;;5.14;90.97;100870.73;125596;1099;104647;-81
2021/12/13 12:00:59;;;;;;;7.50;3.80;;;;;;;5.15;90.19;100875.14;125640;1098;104195;-80
2021/12/13 12:04:19;;;;;;;5.93;3.23;;;;;;;5.13;90.20;100869.84;125660;1099;104299;-79
2021/12/13 12:07:34;;;;;;;8.67;4.00;;;;;;;5.17;90.48;100868.33;125733;1099;104246;-80
2021/12/13 12:10:33;;;;;;;9.30;4.53;;;;;;;5.20;90.45;100866.84;125601;1099;104178;-80
2021/12/13 12:13:26;;;;;;;8.63;4.60;;;;;;;5.23;90.36;100868.71;125680;1097;104185;-81
2021/12/13 12:16:08;;;;;;;14.23;6.80;;;;;;;5.23;90.31;100866.11;125666;1099;102608;-81
2021/12/13 12:18:42;;;;;;;16.77;7.77;;;;;;;5.18;90.06;100880.55;125888;1099;104165;-80
2021/12/13 12:21:57;;;;;;;17.10;8.30;;;;;;;5.12;90.44;100882.75;125786;1098;102251;-81
2021/12/13 12:24:31;;;;;;;19.83;9.13;;;;;;;5.10;90.88;100892.17;125871;1099;104149;-79
2021/12/13 12:27:08;;;;;;;17.27;8.30;;;;;;;5.04;90.62;100893.55;125974;1099;101812;-78
2021/12/13 12:29:44;;;;;;;21.33;9.33;;;;;;;4.99;90.44;100884.56;126049;1099;104156;-80
2021/12/13 12:32:24;;;;;;;19.25;9.20;;;;;;;4.93;90.52;100889.38;125811;1099;119837;-80
2021/12/13 12:35:12;;;;;;;20.57;9.40;;;;;;;4.88;91.08;100892.47;125891;1099;104203;-80